Nearby METAR Reports

 

KHQM - Hoquiam,WA, USA
Updated: 12/10/2019 12:53pm
Light rain, Mist, Overcast
Light rain, Mist, Overcast
 Wind from E
Wind: E 8 mph , 13 km/h
Temperature: 43°F , 6°C
Wind Chill: 38°F , 3°C
Dew Point: 43°F , 6°C
Humidity: 100%
Barometer: 30.10 inHg , 1019.3 hPa
Summary: Light rain, Mist
Clouds: Overcast
Visibility: 2 1/2 miles , 4 km
Cloud details: Overcast 600 ft
2019/12/10 20:53 KHQM 102053Z AUTO 08007KT 2 1/2SM -RA BR OVC006 06/06 A3010 RMK AO2 RAB1956E20B32 SLP197 P0002 60004 T00610061 58007